Time;durP1;ratioP1;P1;durP2;ratioP2;P2;SDS_P1;SDS_P2;PMS_P1;PMS_P2;Temp;Humidity;BMP_temperature;BMP_pressure;BME280_temperature;BME280_humidity;BME280_pressure;Samples;Min_cycle;Max_cycle;Signal;HPM_P1;HPM_P2
2022/03/28 00:01:54;;;;;;;;;38.75;32.25;;;;;16.98;34.52;102107.47;4981130;28;45341;-77
2022/03/28 00:04:19;;;;;;;;;34.75;32.00;;;;;16.93;35.01;102095.13;4981081;28;45450;-76
2022/03/28 00:06:44;;;;;;;;;39.75;34.00;;;;;16.95;34.81;102096.81;4980890;28;45439;-77
2022/03/28 00:09:10;;;;;;;;;40.75;33.75;;;;;16.92;34.88;102091.53;4980763;28;45214;-77
2022/03/28 00:11:35;;;;;;;;;41.50;32.75;;;;;16.89;34.85;102088.97;4980617;28;45209;-76
2022/03/28 00:14:01;;;;;;;;;39.50;31.75;;;;;16.85;35.10;102076.50;4980755;28;45238;-76
2022/03/28 00:16:26;;;;;;;;;33.50;31.50;;;;;16.84;35.13;102081.03;4980684;28;45455;-76
2022/03/28 00:18:52;;;;;;;;;41.50;33.00;;;;;16.80;35.31;102076.66;4980730;28;45448;-77
2022/03/28 00:21:17;;;;;;;;;38.00;33.25;;;;;16.78;35.18;102078.53;4980712;28;45201;-76
2022/03/28 00:23:43;;;;;;;;;36.00;31.25;;;;;16.83;35.19;102083.75;4979356;28;45279;-77
2022/03/28 00:26:08;;;;;;;;;40.50;35.00;;;;;16.81;35.46;102086.50;4980464;28;45663;-77
2022/03/28 00:28:34;;;;;;;;;44.75;34.75;;;;;16.82;35.46;102079.28;4980494;28;45202;-77
2022/03/28 00:30:59;;;;;;;;;37.25;32.50;;;;;16.75;35.54;102072.38;4979030;28;45394;-77
2022/03/28 00:33:24;;;;;;;;;33.00;27.75;;;;;16.74;35.74;102073.28;4979537;28;45363;-76
2022/03/28 00:35:50;;;;;;;;;41.50;35.50;;;;;16.72;35.87;102067.09;4980361;28;45533;-76
2022/03/28 00:38:16;;;;;;;;;36.75;32.75;;;;;16.74;35.78;102078.69;4980291;28;46090;-77
2022/03/28 00:40:42;;;;;;;;;40.50;33.25;;;;;16.74;35.89;102073.28;4980287;28;45537;-76
2022/03/28 00:43:09;;;;;;;;;39.50;33.25;;;;;16.72;36.50;102070.66;4980462;28;45515;-76
2022/03/28 00:45:37;;;;;;;;;36.50;30.25;;;;;16.71;36.35;102071.63;4980581;28;45302;-77
2022/03/28 00:48:03;;;;;;;;;43.50;35.00;;;;;16.67;36.52;102064.56;4980050;28;45252;-76
2022/03/28 00:50:29;;;;;;;;;42.00;32.75;;;;;16.64;36.47;102057.47;4980438;28;45325;-77
2022/03/28 00:52:55;;;;;;;;;43.50;33.00;;;;;16.64;36.68;102065.56;4980327;28;45613;-77
2022/03/28 00:55:21;;;;;;;;;39.00;32.75;;;;;16.57;36.84;102057.75;4980183;28;45438;-77
2022/03/28 00:57:46;;;;;;;;;35.00;32.00;;;;;16.61;36.93;102062.97;4980182;28;45772;-77
2022/03/28 01:00:13;;;;;;;;;36.00;32.00;;;;;16.59;37.13;102056.78;4980215;28;45360;-76
2022/03/28 01:02:39;;;;;;;;;32.00;29.75;;;;;16.60;37.02;102063.03;4980287;28;45447;-77
2022/03/28 01:05:06;;;;;;;;;37.25;31.75;;;;;16.58;37.26;102064.91;4982087;28;45481;-77
2022/03/28 01:07:31;;;;;;;;;39.00;34.25;;;;;16.53;37.25;102053.41;4998619;28;48195;-77
2022/03/28 01:09:59;;;;;;;;;34.25;31.25;;;;;16.56;37.67;102056.88;4983734;28;45216;-76
2022/03/28 01:12:30;;;;;;;;;38.50;33.00;;;;;16.56;37.52;102051.50;4998535;28;45379;-77
2022/03/28 01:14:56;;;;;;;;;41.50;35.00;;;;;16.49;37.83;102041.88;4983357;28;45380;-76
2022/03/28 01:20:06;;;;;;;;;39.50;32.00;;;;;16.52;37.80;102040.88;4983554;28;45222;-77
2022/03/28 01:22:32;;;;;;;;;33.25;31.00;;;;;16.47;38.24;102035.63;4983266;28;45229;-77
2022/03/28 01:25:02;;;;;;;;;42.50;34.25;;;;;16.48;38.12;102037.41;4983550;28;45163;-77
2022/03/28 01:27:28;;;;;;;;;40.75;34.50;;;;;16.42;38.10;102032.22;4982904;28;46669;-77
2022/03/28 01:29:53;;;;;;;;;32.25;30.25;;;;;16.40;38.45;102023.34;4982260;28;45593;-77
2022/03/28 01:32:19;;;;;;;;;32.00;30.75;;;;;16.44;38.57;102033.09;4983416;28;45293;-77
2022/03/28 01:34:45;;;;;;;;;37.25;31.00;;;;;16.44;38.53;102030.38;4983135;28;45302;-77
2022/03/28 01:37:11;;;;;;;;;32.50;31.25;;;;;16.42;38.48;102026.84;4982845;28;46415;-77
2022/03/28 01:39:36;;;;;;;;;36.00;32.75;;;;;16.40;38.78;102023.34;4983316;28;45293;-77
2022/03/28 01:42:02;;;;;;;;;40.25;32.00;;;;;16.39;38.54;102024.25;4982947;28;45665;-77
2022/03/28 01:44:27;;;;;;;;;36.00;31.75;;;;;16.36;38.67;102019.88;4981936;28;45509;-77
2022/03/28 01:46:52;;;;;;;;;34.75;31.25;;;;;16.37;39.06;102023.44;4982725;28;45209;-77
2022/03/28 01:49:19;;;;;;;;;34.75;31.00;;;;;16.35;39.33;102012.72;4983181;28;45218;-77
2022/03/28 01:51:47;;;;;;;;;37.50;31.50;;;;;16.36;39.18;102024.41;4982869;28;45225;-77
2022/03/28 01:54:12;;;;;;;;;33.50;31.50;;;;;16.33;39.34;102014.59;4982874;28;45483;-77
2022/03/28 01:56:39;;;;;;;;;33.75;30.00;;;;;16.32;39.46;102012.81;4982454;28;46186;-77
2022/03/28 01:59:06;;;;;;;;;38.75;32.00;;;;;16.27;39.62;102002.22;4982945;28;45395;-77
2022/03/28 02:01:31;;;;;;;;;34.25;30.75;;;;;16.30;39.51;102015.59;4982958;28;45233;-77
2022/03/28 02:03:57;;;;;;;;;31.00;27.75;;;;;16.28;39.63;102014.75;4982930;28;45118;-77
2022/03/28 02:06:23;;;;;;;;;42.25;34.00;;;;;16.24;39.76;102006.84;4982373;28;45202;-77
2022/03/28 02:08:48;;;;;;;;;34.00;31.50;;;;;16.23;40.00;102005.97;4982770;28;45191;-77
2022/03/28 02:11:14;;;;;;;;;34.75;31.25;;;;;16.09;39.85;101981.34;4982379;28;45863;-77
2022/03/28 02:13:39;;;;;;;;;35.25;30.50;;;;;16.17;40.08;102003.50;4982787;28;45354;-78
2022/03/28 02:16:05;;;;;;;;;35.00;30.00;;;;;16.19;39.92;102004.31;4980672;28;46848;-77
2022/03/28 02:18:31;;;;;;;;;34.75;32.00;;;;;16.19;40.40;102008.81;4982765;28;45345;-78
2022/03/28 02:20:56;;;;;;;;;41.25;34.75;;;;;16.16;40.39;102006.25;4982463;28;45537;-78
2022/03/28 02:23:23;;;;;;;;;38.75;33.00;;;;;16.14;40.33;101998.22;4982443;28;45543;-77
2022/03/28 02:25:48;;;;;;;;;34.00;32.00;;;;;16.17;40.70;102013.38;4982062;28;45358;-77
2022/03/28 02:28:13;;;;;;;;;42.00;36.00;;;;;16.15;40.74;102005.34;4982392;28;45380;-78
2022/03/28 02:30:39;;;;;;;;;45.50;37.75;;;;;16.10;40.88;102010.94;4982347;28;45424;-78
2022/03/28 02:33:06;;;;;;;;;43.50;36.00;;;;;16.05;41.05;102001.22;4982412;28;45293;-78
2022/03/28 02:35:31;;;;;;;;;37.25;32.00;;;;;16.06;41.18;102003.88;4981890;28;47603;-78
2022/03/28 02:38:01;;;;;;;;;43.25;35.75;;;;;16.01;41.31;101992.38;4982076;28;45292;-77
2022/03/28 02:40:28;;;;;;;;;39.00;32.75;;;;;16.04;41.49;102002.19;4981968;28;45305;-78
2022/03/28 02:42:55;;;;;;;;;44.75;35.50;;;;;16.02;41.46;101991.47;4982385;28;45329;-77
2022/03/28 02:45:20;;;;;;;;;38.75;33.25;;;;;16.00;41.77;101992.44;4982061;28;47187;-77
2022/03/28 02:47:46;;;;;;;;;38.50;33.25;;;;;15.89;42.09;101972.16;4982326;28;45263;-78
2022/03/28 02:50:11;;;;;;;;;44.00;35.00;;;;;15.97;42.06;101987.16;4982096;28;45369;-77
2022/03/28 02:52:37;;;;;;;;;40.00;34.25;;;;;15.96;42.37;101993.50;4981973;28;45561;-77
2022/03/28 02:55:02;;;;;;;;;40.50;34.25;;;;;15.91;42.28;101977.47;4981419;28;46255;-77
2022/03/28 02:57:28;;;;;;;;;41.75;34.50;;;;;15.93;42.50;101981.88;4982041;28;45217;-77
2022/03/28 02:59:53;;;;;;;;;44.75;36.00;;;;;15.89;42.71;101973.97;4981964;28;45238;-77
2022/03/28 03:02:18;;;;;;;;;37.50;32.50;;;;;15.89;42.80;101964.06;4981993;28;45243;-77
2022/03/28 03:04:44;;;;;;;;;42.75;36.00;;;;;15.87;42.90;101974.03;4980348;28;46399;-77
2022/03/28 03:07:09;;;;;;;;;45.00;35.50;;;;;15.86;42.95;101969.56;4981936;28;45193;-77
2022/03/28 03:09:35;;;;;;;;;43.50;35.50;;;;;15.84;43.12;101970.56;4981748;28;45396;-77
2022/03/28 03:12:00;;;;;;;;;39.25;33.75;;;;;15.82;43.45;101962.53;4981897;28;45524;-77
2022/03/28 03:14:25;;;;;;;;;37.75;31.50;;;;;15.83;43.38;101958.03;4981265;28;45454;-77
2022/03/28 03:16:51;;;;;;;;;42.75;35.00;;;;;15.77;43.66;101953.75;4981660;28;45384;-78
2022/03/28 03:19:17;;;;;;;;;46.25;36.75;;;;;15.82;43.75;101958.94;4981655;28;45432;-77
2022/03/28 03:21:42;;;;;;;;;43.25;35.75;;;;;15.69;43.62;101932.44;4981517;28;45321;-77
2022/03/28 03:24:08;;;;;;;;;44.25;34.75;;;;;15.76;43.68;101949.28;4981431;28;46027;-77
2022/03/28 03:26:33;;;;;;;;;43.50;37.00;;;;;15.78;43.72;101952.78;4980673;28;45461;-77
2022/03/28 03:28:58;;;;;;;;;45.25;36.00;;;;;15.73;44.10;101944.84;4981485;28;45437;-77
2022/03/28 03:31:27;;;;;;;;;46.25;37.25;;;;;15.76;43.84;101943.03;4981315;28;45376;-77
2022/03/28 03:33:52;;;;;;;;;14.75;12.50;;;;;15.78;43.96;101951.91;4981344;28;45244;-77
2022/03/28 03:36:18;;;;;;;;;46.00;37.00;;;;;15.76;44.39;101949.28;4981070;28;45214;-77
2022/03/28 03:38:44;;;;;;;;;43.50;35.75;;;;;15.74;44.33;101948.44;4981432;28;45416;-77
2022/03/28 03:41:09;;;;;;;;;45.00;35.75;;;;;15.76;43.98;101957.34;4979752;28;45569;-77
2022/03/28 03:43:35;;;;;;;;;50.50;40.50;;;;;15.70;44.81;101936.91;4981051;28;46084;-77
2022/03/28 03:46:00;;;;;;;;;37.25;34.00;;;;;15.69;44.54;101947.72;4981312;28;45346;-77
2022/03/28 03:48:27;;;;;;;;;40.25;35.25;;;;;15.72;44.64;101950.31;4981241;28;45321;-77
2022/03/28 03:50:53;;;;;;;;;47.25;37.75;;;;;15.73;44.48;101943.97;4980039;28;45540;-77
2022/03/28 03:53:19;;;;;;;;;44.50;36.50;;;;;15.64;44.74;101930.84;4980863;28;46985;-77
2022/03/28 03:55:45;;;;;;;;;46.75;38.00;;;;;15.70;44.83;101949.44;4980820;28;45593;-77
2022/03/28 03:58:11;;;;;;;;;44.00;37.75;;;;;15.63;44.88;101943.41;4981083;28;45297;-77
2022/03/28 04:00:36;;;;;;;;;49.50;37.50;;;;;15.66;44.78;101943.31;4981060;28;45553;-77
2022/03/28 04:03:03;;;;;;;;;44.75;37.25;;;;;15.66;44.85;101946.00;4980829;28;45907;-76
2022/03/28 04:05:29;;;;;;;;;46.50;37.25;;;;;15.66;45.10;101946.00;4981011;28;45391;-77
2022/03/28 04:07:54;;;;;;;;;51.00;40.00;;;;;15.65;45.04;101940.66;4980921;28;45298;-77
2022/03/28 04:10:22;;;;;;;;;47.50;38.50;;;;;15.58;45.34;101931.91;4980687;28;45616;-77
2022/03/28 04:12:47;;;;;;;;;50.50;41.75;;;;;15.60;45.25;101937.25;4980766;28;45896;-77
2022/03/28 04:15:12;;;;;;;;;44.00;36.25;;;;;15.60;45.56;101937.25;4980744;28;45305;-77
2022/03/28 04:17:42;;;;;;;;;56.50;44.50;;;;;15.54;45.63;101936.53;4980786;28;45276;-77
2022/03/28 04:20:09;;;;;;;;;50.00;39.75;;;;;15.53;45.72;101942.84;4980833;28;45396;-76
2022/03/28 04:22:34;;;;;;;;;47.50;38.75;;;;;15.49;46.18;101935.81;4980367;28;45336;-76
2022/03/28 04:25:00;;;;;;;;;46.75;37.25;;;;;15.49;45.91;101940.31;4980623;28;45218;-76
2022/03/28 04:27:25;;;;;;;;;44.75;39.00;;;;;15.53;46.18;101947.34;4980773;28;45218;-76
2022/03/28 04:29:50;;;;;;;;;49.50;39.00;;;;;15.48;46.28;101941.25;4980511;28;45333;-76
2022/03/28 04:32:16;;;;;;;;;46.50;40.00;;;;;15.44;46.11;101943.16;4980373;28;45332;-77
2022/03/28 04:34:41;;;;;;;;;49.00;40.00;;;;;15.46;46.07;101945.81;4980412;28;45342;-77
2022/03/28 04:37:07;;;;;;;;;46.00;37.50;;;;;15.51;46.23;101955.47;4980276;28;45265;-76
2022/03/28 04:39:32;;;;;;;;;47.75;37.75;;;;;15.49;46.50;101946.56;4979636;28;45391;-76
2022/03/28 04:41:58;;;;;;;;;51.25;41.25;;;;;15.49;46.20;101949.25;4979931;28;45385;-76
2022/03/28 04:44:23;;;;;;;;;46.00;37.75;;;;;15.48;46.53;101949.31;4980474;28;45309;-76
2022/03/28 04:46:48;;;;;;;;;48.25;39.75;;;;;15.46;46.46;101940.41;4980273;28;45288;-77
2022/03/28 04:49:14;;;;;;;;;53.25;42.00;;;;;15.43;46.47;101937.81;4980390;28;45539;-77
2022/03/28 04:51:40;;;;;;;;;47.25;39.00;;;;;15.42;46.56;101938.75;4979862;28;46951;-76
2022/03/28 04:54:06;;;;;;;;;48.75;38.00;;;;;15.45;46.55;101944.03;4980158;28;45611;-76
2022/03/28 04:56:34;;;;;;;;;46.25;38.00;;;;;15.40;46.49;101936.09;4979742;28;45419;-76
2022/03/28 04:58:59;;;;;;;;;50.75;41.25;;;;;15.44;46.61;101937.78;4980122;28;45229;-76
2022/03/28 05:01:24;;;;;;;;;45.25;36.00;;;;;15.45;46.88;101934.16;4978705;28;47203;-77
2022/03/28 05:03:50;;;;;;;;;48.50;40.50;;;;;15.43;46.80;101933.31;4980224;28;45317;-77
2022/03/28 05:06:15;;;;;;;;;50.00;39.00;;;;;15.38;46.82;101933.50;4980119;28;45218;-76
2022/03/28 05:08:40;;;;;;;;;45.75;37.25;;;;;15.38;46.77;101927.22;4980257;28;45356;-76
2022/03/28 05:11:06;;;;;;;;;47.00;39.50;;;;;15.38;46.65;101924.53;4978355;28;47866;-76
2022/03/28 05:13:31;;;;;;;;;54.00;42.25;;;;;15.37;47.18;101928.16;4980088;28;45303;-76
2022/03/28 05:15:57;;;;;;;;;50.00;40.00;;;;;15.37;46.75;101933.53;4979842;28;45477;-76
2022/03/28 05:18:22;;;;;;;;;50.25;41.25;;;;;15.32;47.13;101925.63;4980055;28;45525;-76
2022/03/28 05:20:48;;;;;;;;;50.75;38.75;;;;;15.34;47.20;101925.56;4978779;28;46158;-77
2022/03/28 05:23:13;;;;;;;;;47.75;38.50;;;;;15.30;47.45;101922.09;4979765;28;45317;-76
2022/03/28 05:25:38;;;;;;;;;41.25;33.75;;;;;15.27;47.36;101919.50;4979791;28;45201;-76
2022/03/28 05:28:05;;;;;;;;;47.75;39.75;;;;;15.27;47.07;101922.22;4979890;28;45241;-76
2022/03/28 05:30:31;;;;;;;;;47.00;38.00;;;;;15.30;47.49;101921.22;4978340;28;47106;-76
2022/03/28 05:32:57;;;;;;;;;50.75;41.00;;;;;15.31;47.62;101931.06;4979906;28;45257;-76
2022/03/28 05:35:22;;;;;;;;;51.00;40.50;;;;;15.32;47.53;101933.69;4979593;28;45376;-77
2022/03/28 05:37:47;;;;;;;;;48.25;40.50;;;;;15.29;47.62;101927.53;4979550;28;45656;-76
2022/03/28 05:40:13;;;;;;;;;50.50;40.75;;;;;15.27;47.77;101926.69;4979427;28;46086;-77
2022/03/28 05:42:39;;;;;;;;;48.75;39.75;;;;;15.30;47.53;101942.72;4979746;28;45179;-76
2022/03/28 05:45:05;;;;;;;;;49.50;40.00;;;;;15.29;47.62;101932.91;4979783;28;45224;-77
2022/03/28 05:47:30;;;;;;;;;48.50;39.00;;;;;15.25;47.81;101929.44;4979564;28;45270;-77
2022/03/28 05:49:56;;;;;;;;;43.75;37.25;;;;;15.24;47.68;101927.69;4980942;28;46425;-76
2022/03/28 05:52:22;;;;;;;;;53.25;42.75;;;;;15.28;47.79;101928.47;4982894;28;45297;-76
2022/03/28 05:54:47;;;;;;;;;48.75;39.50;;;;;15.29;47.79;101930.22;4981603;28;45424;-76
2022/03/28 05:57:12;;;;;;;;;47.50;37.25;;;;;15.29;47.97;101922.16;4981358;28;45592;-76
2022/03/28 05:59:38;;;;;;;;;46.50;37.50;;;;;15.27;48.41;101926.69;4982598;28;45313;-77
2022/03/28 06:02:04;;;;;;;;;49.25;41.00;;;;;15.29;48.00;101932.91;4982917;28;45368;-76
2022/03/28 06:04:29;;;;;;;;;50.75;40.00;;;;;15.22;48.12;101918.78;4982742;28;45328;-77
2022/03/28 06:06:55;;;;;;;;;50.25;39.00;;;;;15.22;48.48;101921.47;4982591;28;45302;-76
2022/03/28 06:09:21;;;;;;;;;49.75;39.25;;;;;15.30;48.42;101918.50;4982468;28;45269;-77
2022/03/28 06:11:46;;;;;;;;;49.00;39.50;;;;;15.30;48.39;101929.28;4982529;28;45237;-77
2022/03/28 06:14:12;;;;;;;;;50.00;40.00;;;;;15.27;48.41;101918.63;4982280;28;45154;-76
2022/03/28 06:16:37;;;;;;;;;50.50;40.75;;;;;15.30;48.40;101922.09;4981198;28;45623;-76
2022/03/28 06:19:03;;;;;;;;;49.50;40.50;;;;;15.31;48.83;101914.91;4982196;28;46024;-77
2022/03/28 06:21:30;;;;;;;;;51.75;42.00;;;;;15.29;48.43;101916.78;4982435;28;45289;-77
2022/03/28 06:23:57;;;;;;;;;46.25;38.25;;;;;15.27;48.63;101907.84;4982329;28;45344;-77
2022/03/28 06:26:23;;;;;;;;;52.00;42.00;;;;;15.28;48.69;101915.00;4982135;28;45340;-76
2022/03/28 06:28:49;;;;;;;;;49.50;41.00;;;;;15.32;48.61;101919.38;4982185;28;45405;-77
2022/03/28 06:31:15;;;;;;;;;54.25;44.25;;;;;15.33;48.94;101918.41;4980994;28;45858;-77
2022/03/28 06:33:41;;;;;;;;;51.25;40.25;;;;;15.28;48.58;101917.69;4981128;28;45325;-76
2022/03/28 06:36:07;;;;;;;;;53.00;42.00;;;;;15.31;48.94;101928.34;4982073;28;45435;-77
2022/03/28 06:38:32;;;;;;;;;56.50;45.00;;;;;15.27;48.70;101913.22;4981923;28;45221;-75
2022/03/28 06:40:58;;;;;;;;;54.75;44.75;;;;;15.30;48.82;101922.09;4982130;28;45280;-76
2022/03/28 06:43:23;;;;;;;;;51.75;43.50;;;;;15.30;48.79;101924.81;4980863;28;45512;-76
2022/03/28 06:45:50;;;;;;;;;53.50;43.50;;;;;15.25;49.15;101912.41;4982252;28;45288;-76
2022/03/28 06:48:16;;;;;;;;;54.50;42.50;;;;;15.22;49.11;101902.66;4981749;28;46160;-76
2022/03/28 06:50:41;;;;;;;;;51.25;41.25;;;;;15.24;49.11;101907.97;4982146;28;45475;-76
2022/03/28 06:53:07;;;;;;;;;55.25;43.00;;;;;15.24;49.26;101899.91;4981823;28;45423;-76
2022/03/28 06:55:33;;;;;;;;;49.00;39.25;;;;;15.26;49.27;101908.81;4981644;28;45383;-76
2022/03/28 06:57:58;;;;;;;;;52.25;42.50;;;;;15.27;49.30;101906.06;4981732;28;45412;-76
2022/03/28 07:00:23;;;;;;;;;52.25;43.25;;;;;15.21;49.56;101910.78;4980438;28;45686;-76
2022/03/28 07:02:49;;;;;;;;;53.75;43.00;;;;;15.17;49.18;101907.31;4981294;28;45289;-76
2022/03/28 07:05:14;;;;;;;;;55.00;44.00;;;;;15.18;49.48;101917.13;4981888;28;45328;-77
2022/03/28 07:07:50;;;;;;;;;58.25;45.50;;;;;15.13;49.60;101911.88;4981616;28;46066;-77
2022/03/28 07:10:20;;;;;;;;;58.00;47.50;;;;;15.14;49.78;101904.72;4981692;28;45259;-76
2022/03/28 07:12:46;;;;;;;;;59.00;47.00;;;;;15.06;49.55;101904.94;4981802;28;45313;-77
2022/03/28 07:15:13;;;;;;;;;56.50;46.50;;;;;14.98;49.61;101889.09;4981199;28;45361;-77
2022/03/28 07:17:46;;;;;;;;;54.50;43.00;;;;;15.04;49.77;101893.38;4981405;28;46092;-79
2022/03/28 07:20:12;;;;;;;;;47.50;38.25;;;;;15.07;50.08;101904.03;4981756;28;45328;-77
2022/03/28 07:22:37;;;;;;;;;57.75;45.75;;;;;15.01;50.15;101890.78;4981396;28;45406;-76
2022/03/28 07:25:03;;;;;;;;;52.00;43.25;;;;;15.05;50.08;101891.56;4979789;28;45414;-76
2022/03/28 07:27:28;;;;;;;;;55.25;44.50;;;;;15.12;49.91;101895.81;4981205;28;45399;-76
2022/03/28 07:29:53;;;;;;;;;54.25;42.50;;;;;15.10;50.11;101887.81;4981430;28;45470;-76
2022/03/28 07:32:19;;;;;;;;;55.25;45.00;;;;;15.21;50.09;101900.00;4981403;28;45422;-76
2022/03/28 07:34:44;;;;;;;;;52.75;43.25;;;;;15.22;50.31;101896.38;4981524;28;45502;-76
2022/03/28 07:37:10;;;;;;;;;63.75;47.00;;;;;15.19;50.04;101889.31;4980938;28;45237;-76
2022/03/28 07:39:38;;;;;;;;;54.50;45.00;;;;;15.17;49.81;101891.16;4980181;28;45332;-76
2022/03/28 07:42:05;;;;;;;;;58.50;47.25;;;;;15.17;49.80;101889.34;4981098;28;45341;-76
2022/03/28 07:44:30;;;;;;;;;61.50;47.25;;;;;15.10;50.13;101884.22;4981322;28;45321;-76
2022/03/28 07:46:55;;;;;;;;;54.75;44.25;;;;;15.17;50.38;101892.03;4980947;28;45996;-77
2022/03/28 07:49:23;;;;;;;;;58.25;47.00;;;;;15.19;50.26;101889.31;4981279;28;45419;-77
2022/03/28 07:51:49;;;;;;;;;54.75;45.00;;;;;15.26;50.40;101898.03;4980882;28;45391;-76
2022/03/28 07:54:14;;;;;;;;;64.75;48.75;;;;;15.25;50.27;101888.19;4980908;28;45388;-76
2022/03/28 07:56:40;;;;;;;;;55.50;43.50;;;;;15.30;50.00;101891.63;4980402;28;45899;-76
2022/03/28 07:59:05;;;;;;;;;57.75;46.25;;;;;15.37;50.30;101893.19;4981122;28;45470;-76
2022/03/28 08:01:31;;;;;;;;;55.25;44.25;;;;;15.34;50.24;101886.09;4980914;28;45492;-77
2022/03/28 08:03:56;;;;;;;;;58.00;46.25;;;;;15.37;50.11;101885.13;4981098;28;45324;-77
2022/03/28 08:06:22;;;;;;;;;60.25;47.50;;;;;15.44;50.02;101888.47;4980527;28;45257;-81
2022/03/28 08:08:47;;;;;;;;;59.00;48.00;;;;;15.47;50.03;101885.66;4981085;28;45234;-77
2022/03/28 08:11:15;;;;;;;;;55.50;45.75;;;;;15.50;50.00;101890.94;4980604;28;45386;-81
2022/03/28 08:13:41;;;;;;;;;51.25;43.25;;;;;15.53;49.59;101889.00;4980641;28;45526;-81
2022/03/28 08:16:08;;;;;;;;;59.75;48.25;;;;;15.60;49.97;101894.19;4980278;28;45344;-81
2022/03/28 08:18:36;;;;;;;;;55.00;46.00;;;;;15.57;49.54;101884.44;4980775;28;45359;-81
2022/03/28 08:21:01;;;;;;;;;56.50;46.00;;;;;15.61;49.38;101891.44;4980610;28;45236;-79
2022/03/28 08:23:27;;;;;;;;;59.75;47.00;;;;;15.66;49.59;101894.84;4980448;28;45491;-76
2022/03/28 08:25:53;;;;;;;;;56.50;43.75;;;;;15.65;49.18;101893.13;4978867;28;46328;-76
2022/03/28 08:28:18;;;;;;;;;56.50;44.75;;;;;15.63;49.03;101877.94;4980675;28;45217;-75
2022/03/28 08:30:44;;;;;;;;;60.00;46.75;;;;;15.67;49.04;101882.25;4980469;28;45206;-75
2022/03/28 08:33:10;;;;;;;;;56.00;45.50;;;;;15.70;49.58;101885.75;4980622;28;45468;-75
2022/03/28 08:35:36;;;;;;;;;56.50;44.25;;;;;15.77;49.18;101885.53;4980097;28;46159;-76
2022/03/28 08:38:01;;;;;;;;;57.50;45.50;;;;;15.78;48.95;101882.78;4980251;28;45422;-80
2022/03/28 08:40:27;;;;;;;;;58.25;46.25;;;;;15.77;48.96;101874.78;4980207;28;45309;-78
2022/03/28 08:42:52;;;;;;;;;55.75;45.75;;;;;15.81;48.41;101868.38;4980357;28;45293;-79
2022/03/28 08:45:18;;;;;;;;;49.75;41.00;;;;;15.80;48.83;101867.47;4980249;28;45384;-78
2022/03/28 08:47:47;;;;;;;;;56.00;45.00;;;;;15.86;48.62;101875.31;4980257;28;45293;-76
2022/03/28 08:50:13;;;;;;;;;55.50;45.75;;;;;15.85;48.98;101856.53;4980453;28;45387;-74
2022/03/28 08:52:41;;;;;;;;;57.75;45.75;;;;;15.94;48.88;101861.59;4980260;28;45406;-75
2022/03/28 08:55:08;;;;;;;;;58.25;45.75;;;;;16.01;48.99;101863.13;4979757;28;46440;-75
2022/03/28 08:57:33;;;;;;;;;61.25;47.25;;;;;16.09;48.51;101871.78;4979974;28;45257;-75
2022/03/28 08:59:59;;;;;;;;;56.25;45.00;;;;;16.07;47.94;101859.28;4980226;28;45798;-75
2022/03/28 09:02:57;;;;;;;;;51.75;42.75;;;;;16.15;47.76;101865.28;4980249;28;45390;-76
2022/03/28 09:05:31;;;;;;;;;64.50;49.00;;;;;16.17;47.87;101863.44;4964795;28;45454;-75
2022/03/28 09:07:58;;;;;;;;;54.50;43.50;;;;;16.21;48.00;101869.56;4979794;28;45732;-75
2022/03/28 09:10:25;;;;;;;;;53.00;43.00;;;;;16.25;47.43;101869.38;4979917;28;45243;-75
2022/03/28 09:13:10;;;;;;;;;52.25;40.50;;;;;16.29;47.46;101860.25;4979940;28;45323;-76
2022/03/28 09:16:12;;;;;;;;;57.00;45.00;;;;;16.36;47.60;101862.72;4979758;28;45482;-75
2022/03/28 09:18:37;;;;;;;;;57.75;47.50;;;;;16.40;47.49;101859.81;4960045;28;45833;-76
2022/03/28 09:21:06;;;;;;;;;56.25;46.00;;;;;16.39;47.44;101841.00;4979990;28;45234;-75
2022/03/28 09:23:46;;;;;;;;;52.00;44.00;;;;;16.56;47.17;101854.72;4979884;28;45386;-79
2022/03/28 09:26:23;;;;;;;;;60.00;48.00;;;;;16.56;47.43;101843.94;4982761;28;46131;-78
2022/03/28 09:29:02;;;;;;;;;60.00;46.50;;;;;16.73;47.12;101858.56;4983269;28;45755;-77
2022/03/28 09:31:31;;;;;;;;;59.25;45.50;;;;;16.76;46.99;101855.75;4983240;28;45346;-79
2022/03/28 09:34:16;;;;;;;;;63.50;48.25;;;;;16.76;47.09;101848.53;4983059;28;45442;-78
2022/03/28 09:36:55;;;;;;;;;59.50;48.25;;;;;16.89;46.71;101854.34;4978000;28;47221;-80
2022/03/28 09:39:29;;;;;;;;;57.50;46.00;;;;;16.97;46.82;101849.50;4983084;28;45367;-80
2022/03/28 09:42:06;;;;;;;;;58.25;45.75;;;;;17.04;47.12;101844.72;4982928;28;45370;-81
2022/03/28 09:44:46;;;;;;;;;56.00;46.00;;;;;17.07;46.98;101832.91;4983073;28;45356;-80
2022/03/28 09:47:21;;;;;;;;;58.50;48.00;;;;;17.21;46.65;101839.47;4982891;28;47082;-81
2022/03/28 09:49:49;;;;;;;;;54.00;43.50;;;;;17.29;45.98;101831.06;4982735;28;45194;-80
2022/03/28 09:52:25;;;;;;;;;53.50;44.25;;;;;17.39;45.85;101837.81;4982986;28;45324;-81
2022/03/28 09:54:54;;;;;;;;;54.75;44.50;;;;;17.48;45.87;101832.97;4982425;28;45216;-80
2022/03/28 09:57:46;;;;;;;;;51.50;42.00;;;;;17.57;44.83;101833.44;4982882;28;45927;-80
2022/03/28 10:00:14;;;;;;;;;52.50;42.75;;;;;17.62;44.79;101830.50;4978955;28;45482;-82
2022/03/28 10:02:40;;;;;;;;;56.50;44.50;;;;;17.67;44.13;101828.47;4982799;28;45368;-74
2022/03/28 10:05:06;;;;;;;;;52.00;42.00;;;;;17.70;44.16;101825.66;4982704;28;45477;-74
2022/03/28 10:07:33;;;;;;;;;51.00;41.50;;;;;17.76;43.52;101816.41;4982576;28;45222;-74
2022/03/28 10:09:59;;;;;;;;;52.00;41.00;;;;;17.83;43.40;101825.09;4981217;28;45723;-75
2022/03/28 10:12:25;;;;;;;;;53.75;43.25;;;;;17.80;43.22;101812.59;4982572;28;45506;-75
2022/03/28 10:14:54;;;;;;;;;45.25;39.25;;;;;17.90;43.15;101811.25;4982266;28;45384;-75
2022/03/28 10:17:20;;;;;;;;;52.50;42.00;;;;;18.00;43.32;101808.16;4982078;28;46353;-73
2022/03/28 10:19:46;;;;;;;;;45.50;38.00;;;;;18.03;42.28;101806.19;4982516;28;45483;-74
2022/03/28 10:22:17;;;;;;;;;44.75;35.75;;;;;18.08;41.75;101808.69;4982140;28;45319;-78
2022/03/28 10:24:45;;;;;;;;;47.00;39.75;;;;;18.10;41.57;101801.38;4982314;28;45356;-78
2022/03/28 10:27:12;;;;;;;;;45.00;36.50;;;;;18.14;41.67;101805.66;4982143;28;45234;-78
2022/03/28 10:29:40;;;;;;;;;49.50;40.00;;;;;18.19;42.10;101791.94;4982361;28;45803;-79
2022/03/28 10:32:15;;;;;;;;;42.00;35.50;;;;;18.24;41.19;101788.09;4982418;28;45380;-78
2022/03/28 10:35:01;;;;;;;;;44.25;35.75;;;;;18.35;41.14;101787.56;4982493;28;45497;-78
2022/03/28 10:37:40;;;;;;;;;45.75;36.75;;;;;18.47;40.65;101781.53;4980765;28;46224;-78
2022/03/28 10:40:11;;;;;;;;;38.25;34.75;;;;;18.55;40.66;101774.91;4981956;28;45580;-78
2022/03/28 10:42:38;;;;;;;;;47.75;37.00;;;;;18.62;40.05;101768.22;4982373;28;45486;-78
2022/03/28 10:45:07;;;;;;;;;50.75;36.00;;;;;18.68;39.55;101767.94;4982028;28;45514;-74
2022/03/28 10:47:42;;;;;;;;;42.50;34.75;;;;;18.75;39.63;101765.78;4981945;28;46853;-74
2022/03/28 10:50:09;;;;;;;;;40.50;33.75;;;;;18.79;38.85;101760.13;4982019;28;45246;-75
2022/03/28 10:52:35;;;;;;;;;38.75;33.75;;;;;18.80;39.31;101747.50;4982168;28;45407;-74
2022/03/28 10:55:11;;;;;;;;;41.25;35.25;;;;;18.80;39.13;101740.25;4981660;28;45549;-74
2022/03/28 10:57:37;;;;;;;;;40.25;34.50;;;;;18.86;39.04;101741.78;4981796;28;47158;-73
2022/03/28 11:00:09;;;;;;;;;41.50;35.50;;;;;18.92;38.91;101744.19;4982054;28;45508;-68
2022/03/28 11:02:35;;;;;;;;;40.50;33.25;;;;;18.99;38.60;101745.59;4972834;28;45522;-69
2022/03/28 11:05:12;;;;;;;;;40.50;35.50;;;;;19.00;38.04;101741.94;4966137;28;45573;-70
2022/03/28 11:07:37;;;;;;;;;36.75;33.50;;;;;18.97;38.26;101727.72;4977702;28;48459;-70
2022/03/28 11:10:09;;;;;;;;;39.00;30.25;;;;;19.07;37.67;101728.97;4981434;28;45430;-69
2022/03/28 11:12:37;;;;;;;;;29.00;28.25;;;;;19.07;37.29;101715.44;4980335;28;45393;-70